createdAt,value
2022-11-10T00:01:34.875Z,5.60
2022-11-10T00:06:56.977Z,6.90
2022-11-10T00:12:19.996Z,5.57
2022-11-10T00:17:42.033Z,6.15
2022-11-10T00:23:04.429Z,6.50
2022-11-10T00:28:26.895Z,6.60
2022-11-10T00:33:48.513Z,6.82
2022-11-10T00:39:10.896Z,5.97
2022-11-10T00:49:54.646Z,7.47
2022-11-10T00:55:16.870Z,7.17
2022-11-10T01:00:38.822Z,7.47
2022-11-10T01:06:09.471Z,6.73
2022-11-10T01:11:31.421Z,7.40
2022-11-10T01:16:53.302Z,7.03
2022-11-10T01:22:15.569Z,7.15
2022-11-10T01:27:37.802Z,8.13
2022-11-10T01:32:59.570Z,6.43
2022-11-10T01:38:22.135Z,7.13
2022-11-10T01:43:44.174Z,6.80
2022-11-10T01:49:07.071Z,6.38
2022-11-10T01:54:46.663Z,6.68
2022-11-10T02:00:10.823Z,6.20
2022-11-10T02:05:33.481Z,6.38
2022-11-10T02:16:18.506Z,7.43
2022-11-10T02:21:40.534Z,6.35
2022-11-10T02:27:03.098Z,5.57
2022-11-10T02:37:46.523Z,6.50
2022-11-10T02:43:15.510Z,6.50
2022-11-10T02:48:39.120Z,7.05
2022-11-10T02:54:01.374Z,8.18
2022-11-10T02:59:23.582Z,8.43
2022-11-10T03:04:45.835Z,8.00
2022-11-10T03:10:08.286Z,8.15
2022-11-10T03:15:30.253Z,9.10
2022-11-10T03:20:51.914Z,7.67
2022-11-10T03:26:13.913Z,7.63
2022-11-10T03:31:35.742Z,7.13
2022-11-10T03:36:57.510Z,7.33
2022-11-10T03:42:19.739Z,7.43
2022-11-10T03:47:44.831Z,6.50
2022-11-10T03:53:06.624Z,6.05
2022-11-10T03:58:28.361Z,6.53
2022-11-10T04:03:57.689Z,6.32
2022-11-10T04:09:19.344Z,6.00
2022-11-10T04:14:41.277Z,7.43
2022-11-10T04:20:03.862Z,5.95
2022-11-10T04:25:26.092Z,6.32
2022-11-10T04:30:49.305Z,5.88
2022-11-10T04:36:13.383Z,6.67
2022-11-10T04:41:35.634Z,7.45
2022-11-10T04:46:57.680Z,6.65
2022-11-10T04:52:19.602Z,6.33
2022-11-10T04:57:43.238Z,5.97
2022-11-10T05:03:07.964Z,5.72
2022-11-10T05:08:29.894Z,6.32
2022-11-10T05:13:52.048Z,7.03
2022-11-10T05:19:13.793Z,6.30
2022-11-10T05:24:35.573Z,5.93
2022-11-10T05:29:57.623Z,6.85
2022-11-10T05:35:19.285Z,9.87
2022-11-10T05:40:40.953Z,10.63
2022-11-10T05:46:03.006Z,12.10
2022-11-10T05:51:25.109Z,17.42
2022-11-10T05:56:47.586Z,20.40
2022-11-10T06:02:09.541Z,21.08
2022-11-10T06:07:31.440Z,22.30
2022-11-10T06:12:54.683Z,21.27
2022-11-10T06:18:16.329Z,21.35
2022-11-10T06:23:37.977Z,19.52
2022-11-10T06:29:00.210Z,17.50
2022-11-10T06:34:23.119Z,19.75
2022-11-10T06:39:44.877Z,14.23
2022-11-10T06:45:07.971Z,14.05
2022-11-10T06:50:30.988Z,13.25
2022-11-10T06:55:53.143Z,15.23
2022-11-10T07:01:17.649Z,23.02
2022-11-10T07:06:43.692Z,24.75
2022-11-10T07:12:06.252Z,24.38
2022-11-10T07:17:28.349Z,27.35
2022-11-10T07:22:50.337Z,27.40
2022-11-10T07:28:12.987Z,28.80
2022-11-10T07:33:35.440Z,29.13
2022-11-10T07:38:57.304Z,29.17
2022-11-10T07:44:22.463Z,29.37
2022-11-10T07:49:46.227Z,26.75
2022-11-10T07:55:08.286Z,26.55
2022-11-10T08:00:30.295Z,24.20
2022-11-10T08:05:52.417Z,23.43
2022-11-10T08:11:14.770Z,23.30
2022-11-10T08:16:36.383Z,23.17
2022-11-10T08:21:58.369Z,22.03
2022-11-10T08:27:20.383Z,19.73
2022-11-10T08:38:11.790Z,18.00
2022-11-10T08:43:33.973Z,16.40
2022-11-10T08:48:55.920Z,15.32
2022-11-10T08:54:17.714Z,13.57
2022-11-10T08:59:39.453Z,9.88
2022-11-10T09:05:01.520Z,7.67
2022-11-10T09:10:23.966Z,5.90
2022-11-10T09:15:45.929Z,5.75
2022-11-10T09:21:08.426Z,5.47
2022-11-10T09:26:31.643Z,5.40
2022-11-10T09:31:53.719Z,4.72
2022-11-10T09:37:15.674Z,4.93
2022-11-10T09:42:40.824Z,3.92
2022-11-10T09:48:13.067Z,5.95
2022-11-10T09:53:41.814Z,5.80
2022-11-10T09:59:14.419Z,4.68
2022-11-10T10:05:07.796Z,4.75
2022-11-10T10:10:37.558Z,4.65
2022-11-10T10:16:05.218Z,5.28
2022-11-10T10:21:48.746Z,5.38
2022-11-10T10:27:19.458Z,5.18
2022-11-10T10:32:41.256Z,4.97
2022-11-10T10:38:05.756Z,5.07
2022-11-10T10:43:27.767Z,5.22
2022-11-10T10:49:32.165Z,5.68
2022-11-10T10:55:01.154Z,6.07
2022-11-10T11:00:23.887Z,4.00
2022-11-10T11:11:26.781Z,4.65
2022-11-10T11:17:13.402Z,5.65
2022-11-10T11:22:35.485Z,4.57
2022-11-10T11:28:22.340Z,5.82
2022-11-10T11:34:13.583Z,4.72
2022-11-10T11:40:01.356Z,5.10
2022-11-10T11:45:58.757Z,4.30
2022-11-10T11:51:31.140Z,5.28
2022-11-10T11:56:56.950Z,5.20
2022-11-10T12:02:52.492Z,4.70
2022-11-10T12:08:41.571Z,5.53
2022-11-10T12:14:27.570Z,5.68
2022-11-10T12:20:14.853Z,4.47
2022-11-10T12:25:58.608Z,4.97
2022-11-10T12:31:25.164Z,4.78
2022-11-10T12:36:48.994Z,5.50
2022-11-10T12:42:21.364Z,5.43
2022-11-10T12:47:45.538Z,4.97
2022-11-10T12:53:20.372Z,5.47
2022-11-10T12:58:42.758Z,5.35
2022-11-10T13:09:34.077Z,5.32
2022-11-10T13:14:55.900Z,5.40
2022-11-10T13:20:50.991Z,4.57
2022-11-10T13:26:45.834Z,4.32
2022-11-10T13:32:13.630Z,4.65
2022-11-10T13:37:35.232Z,4.60
2022-11-10T13:43:00.051Z,5.53
2022-11-10T13:48:36.853Z,4.65
2022-11-10T13:54:45.100Z,5.32
2022-11-10T14:00:37.272Z,4.72
2022-11-10T14:06:05.192Z,5.78
2022-11-10T14:11:37.167Z,5.38
2022-11-10T14:16:59.818Z,4.97
2022-11-10T14:22:33.260Z,6.07
2022-11-10T14:27:58.401Z,5.25
2022-11-10T14:33:23.103Z,5.55
2022-11-10T14:38:45.631Z,5.50
2022-11-10T14:44:13.653Z,6.05
2022-11-10T14:49:35.715Z,6.25
2022-11-10T14:54:57.885Z,6.68
2022-11-10T15:00:24.022Z,6.10
2022-11-10T15:05:47.865Z,6.30
2022-11-10T15:11:37.662Z,7.57
2022-11-10T15:17:01.270Z,6.40
2022-11-10T15:22:30.978Z,7.13
2022-11-10T15:28:02.320Z,6.13
2022-11-10T15:33:27.801Z,6.38
2022-11-10T15:39:12.081Z,6.78
2022-11-10T15:44:33.846Z,6.25
2022-11-10T15:49:55.534Z,6.13
2022-11-10T15:55:24.564Z,6.70
2022-11-10T16:00:47.313Z,6.63
2022-11-10T16:06:18.279Z,5.80
2022-11-10T16:11:43.553Z,6.03
2022-11-10T16:17:06.270Z,6.10
2022-11-10T16:22:31.836Z,6.05
2022-11-10T16:27:53.793Z,5.35
2022-11-10T16:33:17.481Z,5.67
2022-11-10T16:38:39.894Z,6.22
2022-11-10T16:44:01.822Z,5.73
2022-11-10T16:49:26.965Z,6.13
2022-11-10T16:54:48.752Z,5.28
2022-11-10T17:00:11.139Z,7.35
2022-11-10T17:05:35.050Z,7.88
2022-11-10T17:10:57.494Z,7.53
2022-11-10T17:16:28.865Z,7.97
2022-11-10T17:21:53.300Z,8.57
2022-11-10T17:27:15.644Z,9.73
2022-11-10T17:33:03.454Z,9.70
2022-11-10T17:38:30.852Z,8.85
2022-11-10T17:43:53.042Z,10.25
2022-11-10T17:49:14.740Z,9.20
2022-11-10T17:54:36.604Z,9.60
2022-11-10T17:59:58.876Z,7.85
2022-11-10T18:05:21.001Z,8.53
2022-11-10T18:10:49.257Z,8.90
2022-11-10T18:16:13.441Z,9.10
2022-11-10T18:21:34.964Z,8.52
2022-11-10T18:26:57.664Z,8.17
2022-11-10T18:37:43.740Z,7.65
2022-11-10T18:43:07.721Z,7.80
2022-11-10T18:48:34.719Z,8.10
2022-11-10T18:53:59.027Z,8.00
2022-11-10T18:59:20.777Z,7.67
2022-11-10T19:04:42.838Z,7.00
2022-11-10T19:10:06.372Z,7.13
2022-11-10T19:20:50.365Z,7.10
2022-11-10T19:26:22.573Z,6.37
2022-11-10T19:31:45.576Z,6.30
2022-11-10T19:37:07.182Z,7.45
2022-11-10T19:42:29.083Z,6.70
2022-11-10T19:47:51.180Z,7.05
2022-11-10T19:53:13.128Z,7.57
2022-11-10T19:58:39.204Z,7.63
2022-11-10T20:04:01.385Z,6.53
2022-11-10T20:09:23.458Z,7.40
2022-11-10T20:14:45.297Z,7.50
2022-11-10T20:20:07.659Z,7.47
2022-11-10T20:25:31.973Z,6.80
2022-11-10T20:30:57.105Z,7.22
2022-11-10T20:36:30.821Z,7.63
2022-11-10T20:41:52.829Z,7.38
2022-11-10T20:47:15.415Z,6.90
2022-11-10T20:57:58.936Z,7.85
2022-11-10T21:03:22.909Z,7.80
2022-11-10T21:08:44.818Z,8.05
2022-11-10T21:14:06.539Z,7.57
2022-11-10T21:19:32.845Z,7.85
2022-11-10T21:25:00.575Z,8.07
2022-11-10T21:30:22.557Z,8.35
2022-11-10T21:35:44.925Z,8.73
2022-11-10T21:41:06.202Z,8.55
2022-11-10T21:51:50.569Z,7.63
2022-11-10T21:57:13.113Z,7.90
2022-11-10T22:07:57.399Z,6.72
2022-11-10T22:13:20.639Z,6.93
2022-11-10T22:18:43.450Z,7.60
2022-11-10T22:24:05.403Z,7.60
2022-11-10T22:29:31.684Z,7.10
2022-11-10T22:34:54.459Z,7.15
2022-11-10T22:45:37.906Z,7.72
2022-11-10T22:51:02.531Z,7.10
2022-11-10T22:56:25.241Z,7.40
2022-11-10T23:01:47.484Z,7.32
2022-11-10T23:07:09.949Z,7.05
2022-11-10T23:12:33.989Z,6.30
2022-11-10T23:17:56.290Z,6.47
2022-11-10T23:23:18.567Z,5.95
2022-11-10T23:28:41.053Z,5.97
2022-11-10T23:34:03.337Z,5.10
2022-11-10T23:39:25.481Z,5.65
2022-11-10T23:44:47.149Z,6.47
2022-11-10T23:50:10.114Z,5.20
2022-11-10T23:55:39.899Z,5.30
